Time;durP1;ratioP1;P1;durP2;ratioP2;P2;SDS_P1;SDS_P2;PMS_P1;PMS_P2;Temp;Humidity;BMP_temperature;BMP_pressure;BME280_temperature;BME280_humidity;BME280_pressure;Samples;Min_cycle;Max_cycle;Signal;HPM_P1;HPM_P2
2023/05/04 05:05:15;;;;;;;4.60;3.05;;;;;;;;;;4989733;23;20323;-87
2023/05/04 05:07:41;;;;;;;6.50;3.05;;;;;;;;;;4997692;28;20053;-87
2023/05/04 05:10:08;;;;;;;10.60;3.40;;;;;;;;;;4998649;28;20046;-88
2023/05/04 05:12:34;;;;;;;6.53;3.40;;;;;;;;;;4993626;28;20034;-87
2023/05/04 05:15:03;;;;;;;5.80;3.47;;;;;;;;;;4989915;28;20034;-86
2023/05/04 05:17:29;;;;;;;6.38;3.42;;;;;;;;;;4993048;28;20034;-87
2023/05/04 05:19:55;;;;;;;7.13;3.40;;;;;;;;;;4991412;28;20622;-83
2023/05/04 05:22:21;;;;;;;6.20;3.83;;;;;;;;;;4977344;28;20060;-86
2023/05/04 05:24:47;;;;;;;7.05;3.60;;;;;;;;;;4982256;28;20049;-86
2023/05/04 05:27:12;;;;;;;9.80;3.90;;;;;;;;;;4970915;28;20047;-86
2023/05/04 05:29:38;;;;;;;5.80;3.60;;;;;;;;;;4978112;28;20291;-88
2023/05/04 05:32:05;;;;;;;9.90;3.13;;;;;;;;;;4975175;28;20452;-87
2023/05/04 05:34:31;;;;;;;6.03;3.50;;;;;;;;;;4974865;28;20014;-86
2023/05/04 05:36:57;;;;;;;7.40;3.85;;;;;;;;;;4986437;28;20072;-85
2023/05/04 05:39:23;;;;;;;7.95;4.05;;;;;;;;;;4978775;28;20030;-86
2023/05/04 05:41:49;;;;;;;6.10;3.22;;;;;;;;;;4966810;28;20041;-87
2023/05/04 05:44:15;;;;;;;8.43;3.67;;;;;;;;;;4974904;28;20038;-87
2023/05/04 05:46:41;;;;;;;5.97;3.67;;;;;;;;;;4972776;28;20037;-86
2023/05/04 05:49:07;;;;;;;6.05;3.47;;;;;;;;;;4995218;28;20022;-87
2023/05/04 05:51:33;;;;;;;20.08;5.25;;;;;;;;;;4980484;28;20014;-87
2023/05/04 05:53:59;;;;;;;4.60;2.85;;;;;;;;;;4977637;28;20026;-87
2023/05/04 05:56:25;;;;;;;6.53;3.20;;;;;;;;;;4981618;28;20916;-87
2023/05/04 05:58:54;;;;;;;7.43;3.63;;;;;;;;;;4977756;28;20046;-88
2023/05/04 06:01:20;;;;;;;7.70;3.55;;;;;;;;;;4981367;28;20404;-87
2023/05/04 06:03:46;;;;;;;6.65;3.60;;;13.90;97.40;;;;;;4974432;28;20027;-86
2023/05/04 06:06:12;;;;;;;5.20;3.33;;;;;;;;;;4980804;28;20038;-86
2023/05/04 06:08:38;;;;;;;9.32;3.60;;;;;;;;;;4991986;28;20037;-86
2023/05/04 06:11:05;;;;;;;5.80;3.58;;;;;;;;;;4973569;28;20023;-86
2023/05/04 06:13:31;;;;;;;6.88;3.92;;;;;;;;;;4973126;28;20040;-86
2023/05/04 06:15:57;;;;;;;8.05;3.85;;;;;;;;;;4982528;28;20064;-88
2023/05/04 06:18:23;;;;;;;13.23;4.07;;;;;;;;;;4996267;28;20082;-86
2023/05/04 06:20:49;;;;;;;8.23;3.53;;;;;;;;;;4985721;28;20030;-87
2023/05/04 06:23:15;;;;;;;11.50;6.57;;;;;;;;;;4982431;28;20010;-87
2023/05/04 06:25:41;;;;;;;8.07;4.15;;;;;;;;;;4997683;28;20045;-87
2023/05/04 06:28:07;;;;;;;5.43;3.70;;;;;;;;;;4985677;28;20022;-85
2023/05/04 06:30:33;;;;;;;7.60;4.25;;;;;;;;;;4980257;28;20069;-86
2023/05/04 06:32:59;;;;;;;5.35;3.60;;;;;;;;;;4984410;28;20030;-87
2023/05/04 06:35:25;;;;;;;6.10;3.92;;;;;;;;;;4993938;28;20041;-85
2023/05/04 06:37:51;;;;;;;6.13;3.75;;;;;;;;;;4980283;28;20058;-85
2023/05/04 06:40:20;;;;;;;7.10;3.53;;;;;;;;;;4981473;28;20034;-88
2023/05/04 06:42:46;;;;;;;6.43;3.78;;;;;;;;;;4981782;28;20065;-87
2023/05/04 06:45:12;;;;;;;5.25;3.65;;;;;;;;;;4981181;28;20058;-90
2023/05/04 06:47:38;;;;;;;7.90;3.42;;;;;;;;;;4980513;28;20054;-86
2023/05/04 06:50:08;;;;;;;8.60;3.90;;;14.60;97.80;;;;;;4978746;28;20023;-91
2023/05/04 06:52:36;;;;;;;6.90;3.88;;;;;;;;;;4981104;28;20026;-89
2023/05/04 06:55:02;;;;;;;5.82;3.55;;;;;;;;;;4985862;28;20021;-89
2023/05/04 06:57:28;;;;;;;5.55;3.83;;;14.80;97.70;;;;;;4981997;28;20038;-87
2023/05/04 06:59:54;;;;;;;5.88;3.60;;;;;;;;;;4983558;28;20034;-90
2023/05/04 07:02:20;;;;;;;7.38;3.72;;;;;;;;;;4986910;28;20006;-89
2023/05/04 07:04:46;;;;;;;4.78;3.90;;;;;;;;;;4983937;28;20439;-89
2023/05/04 07:07:12;;;;;;;8.23;4.32;;;;;;;;;;4989098;28;20022;-89
2023/05/04 07:09:38;;;;;;;10.48;4.40;;;;;;;;;;4991560;28;20050;-90
2023/05/04 07:12:04;;;;;;;4.93;3.85;;;;;;;;;;4986161;28;20017;-88
2023/05/04 07:14:30;;;;;;;6.57;4.38;;;;;;;;;;4983463;28;20098;-86
2023/05/04 07:16:56;;;;;;;5.53;4.00;;;;;;;;;;4986754;28;20309;-89
2023/05/04 07:19:22;;;;;;;9.10;4.75;;;;;;;;;;4985367;28;20034;-91
2023/05/04 07:21:51;;;;;;;9.35;4.10;;;;;;;;;;4989090;28;20049;-88
2023/05/04 07:24:17;;;;;;;6.57;4.00;;;;;;;;;;4987943;28;20019;-89
2023/05/04 07:26:43;;;;;;;8.32;4.20;;;;;;;;;;4989096;28;20047;-87
2023/05/04 07:29:10;;;;;;;7.32;4.47;;;;;;;;;;4998540;28;20030;-89
2023/05/04 07:31:37;;;;;;;5.82;3.95;;;;;;;;;;5008286;28;20030;-90
2023/05/04 07:34:05;;;;;;;7.07;4.68;;;;;;;;;;5002290;28;20014;-87
2023/05/04 07:36:34;;;;;;;6.70;4.57;;;;;;;;;;4990604;28;20091;-90
2023/05/04 07:39:00;;;;;;;8.07;4.35;;;;;;;;;;5002453;28;20046;-87
2023/05/04 07:41:26;;;;;;;8.80;5.22;;;;;;;;;;4988065;28;20038;-89
2023/05/04 07:43:52;;;;;;;7.18;4.80;;;;;;;;;;4987576;28;20082;-89
2023/05/04 07:46:18;;;;;;;5.90;4.57;;;;;;;;;;4985040;28;20061;-88
2023/05/04 07:48:44;;;;;;;8.63;5.13;;;;;;;;;;4994123;28;20027;-89
2023/05/04 07:51:21;;;;;;;10.20;5.78;;;;;;;;;;4994991;28;20049;-91
2023/05/04 07:53:47;;;;;;;8.40;5.07;;;;;;;;;;4994427;28;20033;-90
2023/05/04 07:56:13;;;;;;;8.60;5.30;;;;;;;;;;4987810;28;20022;-88
2023/05/04 07:58:40;;;;;;;8.07;4.95;;;;;;;;;;4992094;28;20039;-88
2023/05/04 08:01:10;;;;;;;7.68;4.90;;;;;;;;;;5012163;28;20014;-89
2023/05/04 08:08:48;;;;;;;9.65;4.50;;;;;;;;;;4960451;28;20361;-84
2023/05/04 08:11:14;;;;;;;7.30;4.70;;;17.20;96.40;;;;;;4938262;28;20047;-85
2023/05/04 08:13:40;;;;;;;6.88;4.22;;;;;;;;;;4943808;28;20045;-86
2023/05/04 08:16:10;;;;;;;8.13;4.28;;;17.60;96.10;;;;;;4939973;28;20031;-88
2023/05/04 08:18:36;;;;;;;7.93;4.95;;;;;;;;;;4944351;28;20042;-86
2023/05/04 08:21:02;;;;;;;6.55;4.28;;;17.90;95.30;;;;;;4966291;28;20362;-84
2023/05/04 08:23:29;;;;;;;7.18;4.75;;;;;;;;;;4945863;28;20030;-86
2023/05/04 08:25:55;;;;;;;6.43;4.63;;;;;;;;;;4949565;28;20484;-84
2023/05/04 08:28:21;;;;;;;6.40;4.90;;;;;;;;;;4953518;28;20034;-85
2023/05/04 08:30:47;;;;;;;8.82;4.82;;;;;;;;;;4965946;28;20472;-84
2023/05/04 08:33:13;;;;;;;7.75;4.65;;;;;;;;;;4954425;28;20041;-86
2023/05/04 08:35:39;;;;;;;7.90;4.57;;;;;;;;;;4955015;28;20039;-87
2023/05/04 08:38:05;;;;;;;7.30;4.93;;;;;;;;;;4949404;28;20108;-84
2023/05/04 08:40:32;;;;;;;6.55;4.32;;;18.10;94.90;;;;;;4951369;28;20106;-84
2023/05/04 08:42:58;;;;;;;8.25;4.60;;;;;;;;;;4943130;28;20042;-86
2023/05/04 08:45:24;;;;;;;9.05;4.47;;;;;;;;;;4955224;28;21205;-85
2023/05/04 08:47:50;;;;;;;5.85;4.32;;;;;;;;;;4945571;28;20038;-86
2023/05/04 08:50:16;;;;;;;6.60;4.20;;;;;;;;;;4944007;28;20023;-86
2023/05/04 08:52:45;;;;;;;6.60;4.05;;;18.60;94.10;;;;;;4964176;28;20035;-83
2023/05/04 08:55:12;;;;;;;6.07;4.25;;;18.60;94.00;;;;;;4954068;28;20758;-86
2023/05/04 08:57:41;;;;;;;5.65;4.05;;;18.60;93.60;;;;;;4967574;28;20483;-84
2023/05/04 09:00:09;;;;;;;6.32;4.18;;;18.60;93.70;;;;;;4971361;28;20041;-86
2023/05/04 09:02:36;;;;;;;9.35;3.90;;;18.70;93.90;;;;;;4950221;28;20092;-85
2023/05/04 09:05:03;;;;;;;7.63;4.20;;;;;;;;;;4944134;28;20402;-83
2023/05/04 09:07:29;;;;;;;8.13;3.78;;;;;;;;;;4954655;28;20027;-82
2023/05/04 09:09:55;;;;;;;6.05;4.10;;;;;;;;;;4961690;28;20160;-83
2023/05/04 09:12:22;;;;;;;5.30;3.65;;;;;;;;;;4953452;28;20031;-84
2023/05/04 09:14:48;;;;;;;5.35;3.63;;;;;;;;;;4954409;28;20034;-85
2023/05/04 09:17:24;;;;;;;5.53;3.80;;;19.20;92.10;;;;;;4943889;28;20046;-83
2023/05/04 09:20:04;;;;;;;8.38;3.70;;;19.20;92.40;;;;;;4951331;28;20042;-84
2023/05/04 09:22:30;;;;;;;5.07;3.35;;;19.40;93.00;;;;;;4942684;28;20182;-85
2023/05/04 09:25:24;;;;;;;5.40;3.35;;;19.60;91.70;;;;;;4939600;28;20115;-85
2023/05/04 09:27:53;;;;;;;6.95;4.05;;;19.60;92.10;;;;;;4943792;28;20077;-84
2023/05/04 09:30:22;;;;;;;5.28;4.18;;;19.60;91.90;;;;;;4952783;28;20030;-82
2023/05/04 09:32:48;;;;;;;5.55;3.42;;;19.60;91.90;;;;;;4965449;28;20140;-82
2023/05/04 09:35:35;;;;;;;4.88;3.25;;;19.90;92.50;;;;;;4949071;28;20038;-81
2023/05/04 09:38:01;;;;;;;6.32;4.15;;;;;;;;;;4949587;28;20060;-83
2023/05/04 09:40:40;;;;;;;4.65;3.40;;;20.10;91.70;;;;;;4962506;28;21267;-83
2023/05/04 09:43:07;;;;;;;4.55;3.17;;;;;;;;;;4954196;28;20073;-83
2023/05/04 09:45:44;;;;;;;4.75;3.30;;;20.40;91.10;;;;;;4946638;28;20117;-83
2023/05/04 09:48:29;;;;;;;4.13;3.58;;;20.50;90.60;;;;;;4948958;28;20034;-84
2023/05/04 09:50:57;;;;;;;4.78;3.00;;;20.50;89.70;;;;;;4968032;28;20499;-82
2023/05/04 09:53:34;;;;;;;4.38;3.05;;;20.50;89.70;;;;;;4954670;28;20034;-81
2023/05/04 09:56:28;;;;;;;5.68;3.17;;;20.60;90.10;;;;;;4955900;28;20396;-79
2023/05/04 09:58:57;;;;;;;4.80;3.03;;;;;;;;;;4963974;28;20039;-82
2023/05/04 10:01:28;;;;;;;4.10;3.20;;;20.90;89.50;;;;;;4962063;28;20041;-80
2023/05/04 10:03:54;;;;;;;4.97;3.47;;;;;;;;;;4949534;28;20135;-80
2023/05/04 10:06:21;;;;;;;5.43;3.20;;;;;;;;;;4950430;28;20062;-81
2023/05/04 10:08:48;;;;;;;3.80;2.80;;;21.10;87.50;;;;;;4941787;28;20030;-80
2023/05/04 10:11:19;;;;;;;3.85;2.80;;;21.20;87.90;;;;;;4943338;28;20546;-82
2023/05/04 10:13:46;;;;;;;4.00;2.95;;;21.30;86.80;;;;;;4968948;28;20391;-81
2023/05/04 10:16:26;;;;;;;5.03;3.40;;;21.30;86.70;;;;;;4960065;28;20622;-82
2023/05/04 10:19:12;;;;;;;4.78;2.97;;;21.20;86.40;;;;;;4947582;28;20034;-81
2023/05/04 10:21:38;;;;;;;4.57;3.30;;;21.20;87.20;;;;;;4965635;28;20047;-83
2023/05/04 10:24:10;;;;;;;4.63;3.10;;;21.30;85.50;;;;;;4950065;28;20165;-80
2023/05/04 10:27:02;;;;;;;4.03;2.60;;;21.30;84.80;;;;;;4955234;28;20031;-80
2023/05/04 10:29:31;;;;;;;3.85;2.70;;;21.30;84.80;;;;;;4947838;28;20034;-83
2023/05/04 10:31:58;;;;;;;5.03;2.80;;;;;;;;;;4941100;28;20373;-81
2023/05/04 10:34:25;;;;;;;3.92;2.35;;;;;;;;;;4942501;28;20070;-82
2023/05/04 10:36:51;;;;;;;3.53;2.55;;;;;;;;;;4959954;28;20023;-81
2023/05/04 10:39:21;;;;;;;4.15;2.38;;;21.90;82.20;;;;;;4947512;28;20027;-84
2023/05/04 10:41:59;;;;;;;;;;;21.90;82.60;;;;;;4950407;28;20034;-81
2023/05/04 10:44:25;;;;;;;4.13;3.38;;;;;;;;;;4948174;28;19918;-83
2023/05/04 10:47:01;;;;;;;3.95;2.90;;;22.20;80.50;;;;;;4966524;28;20038;-80
2023/05/04 10:49:27;;;;;;;3.08;2.60;;;;;;;;;;4965824;28;20027;-79
2023/05/04 10:52:15;;;;;;;5.93;2.85;;;22.10;81.40;;;;;;4953031;28;20133;-82
2023/05/04 10:54:42;;;;;;;4.43;2.85;;;;;;;;;;4962791;28;20347;-84
2023/05/04 10:57:11;;;;;;;5.65;3.00;;;22.40;80.30;;;;;;4950309;28;20031;-81
2023/05/04 10:59:38;;;;;;;4.47;2.50;;;22.40;79.90;;;;;;4964712;28;20050;-80
2023/05/04 11:02:05;;;;;;;4.07;2.60;;;22.40;80.10;;;;;;4950905;28;20027;-82
2023/05/04 11:04:31;;;;;;;3.78;2.70;;;22.30;80.00;;;;;;4949050;28;20035;-80
2023/05/04 11:07:05;;;;;;;6.63;2.70;;;22.50;78.30;;;;;;4946542;28;20031;-80
2023/05/04 11:09:43;;;;;;;4.32;2.42;;;22.40;78.60;;;;;;4944820;28;20031;-82
2023/05/04 11:12:09;;;;;;;4.30;2.33;;;;;;;;;;4947443;28;20075;-82
2023/05/04 11:14:41;;;;;;;3.83;2.30;;;;;;;;;;4963788;28;20030;-82
2023/05/04 11:17:11;;;;;;;4.45;3.00;;;22.80;77.20;;;;;;4946096;28;20034;-83
2023/05/04 11:19:51;;;;;;;3.60;2.40;;;22.70;77.50;;;;;;4946040;28;20027;-80
2023/05/04 11:22:17;;;;;;;4.85;2.80;;;22.90;78.00;;;;;;4947031;28;20026;-81
2023/05/04 11:24:44;;;;;;;4.32;2.65;;;23.10;77.10;;;;;;4949132;28;20042;-83
2023/05/04 11:27:24;;;;;;;3.13;2.30;;;23.10;77.60;;;;;;4952617;28;20453;-82
2023/05/04 11:30:00;;;;;;;3.75;2.55;;;23.30;75.50;;;;;;4945627;28;20019;-80
2023/05/04 11:32:45;;;;;;;4.50;2.40;;;23.40;73.70;;;;;;4960351;28;21237;-81
2023/05/04 11:35:18;;;;;;;5.07;2.47;;;23.30;74.00;;;;;;4958741;28;20347;-81
2023/05/04 11:37:45;;;;;;;3.30;2.10;;;23.40;74.80;;;;;;4948313;28;20114;-82
2023/05/04 11:40:18;;;;;;;5.07;3.10;;;23.40;75.30;;;;;;4943111;28;20027;-82
2023/05/04 11:42:44;;;;;;;3.40;2.03;;;;;;;;;;4959843;28;20507;-82
2023/05/04 11:45:16;;;;;;;2.85;2.15;;;23.50;73.70;;;;;;4942035;28;20035;-79
2023/05/04 11:47:43;;;;;;;4.10;2.10;;;23.70;73.80;;;;;;4950190;28;20077;-81
2023/05/04 11:50:10;;;;;;;3.38;2.30;;;23.70;72.70;;;;;;4938554;28;20599;-81
2023/05/04 11:52:39;;;;;;;3.60;2.13;;;;;;;;;;4949803;28;20032;-82
2023/05/04 11:55:12;;;;;;;4.97;2.60;;;23.90;72.90;;;;;;4942142;28;20031;-82
2023/05/04 11:57:38;;;;;;;3.17;2.15;;;23.90;71.10;;;;;;4936175;28;20042;-82
2023/05/04 12:00:06;;;;;;;3.20;2.40;;;23.80;71.20;;;;;;4919141;28;20095;-82
2023/05/04 12:02:32;;;;;;;3.47;2.10;;;;;;;;;;4946250;28;20027;-81
2023/05/04 12:04:58;;;;;;;3.95;2.20;;;;;;;;;;4955078;28;20475;-80
2023/05/04 12:07:24;;;;;;;7.07;2.00;;;;;;;;;;4985796;28;20047;-81
2023/05/04 12:09:50;;;;;;;5.63;2.20;;;;;;;;;;4977595;28;20031;-82
2023/05/04 12:12:17;;;;;;;3.22;2.20;;;24.00;69.10;;;;;;4956284;28;20050;-78
2023/05/04 12:14:50;;;;;;;3.13;2.05;;;24.00;69.30;;;;;;4963868;28;20038;-85
2023/05/04 12:17:17;;;;;;;3.05;2.10;;;;;;;;;;4951552;28;20015;-82
2023/05/04 12:19:48;;;;;;;3.20;1.90;;;24.20;67.90;;;;;;4961766;28;20054;-82
2023/05/04 12:22:14;;;;;;;4.18;1.83;;;;;;;;;;4967651;28;20058;-82
2023/05/04 12:24:40;;;;;;;3.67;2.00;;;;;;;;;;4969279;28;20038;-80
2023/05/04 12:27:12;;;;;;;2.92;1.85;;;;;;;;;;4942740;28;20121;-80
2023/05/04 12:29:38;;;;;;;3.58;2.15;;;;;;;;;;4950947;28;20031;-81
2023/05/04 12:32:04;;;;;;;3.25;2.20;;;;;;;;;;4940711;28;20035;-82
2023/05/04 12:34:30;;;;;;;3.40;2.13;;;;;;;;;;4945438;28;20077;-83
2023/05/04 12:36:57;;;;;;;3.20;2.25;;;24.40;66.00;;;;;;4952958;28;20027;-81
2023/05/04 12:39:23;;;;;;;3.13;2.00;;;;;;;;;;4949153;28;20522;-82
2023/05/04 12:41:49;;;;;;;5.05;1.90;;;;;;;;;;4951418;28;20031;-83
2023/05/04 12:44:15;;;;;;;5.20;2.88;;;;;;;;;;4942041;28;20160;-81
2023/05/04 12:46:44;;;;;;;3.67;1.90;;;;;;;;;;4968106;28;20035;-81
2023/05/04 12:49:13;;;;;;;2.17;1.67;;;24.50;65.70;;;;;;4969503;28;20083;-82
2023/05/04 12:51:39;;;;;;;2.50;1.85;;;;;;;;;;4955499;28;20035;-85
2023/05/04 12:54:06;;;;;;;4.95;2.38;;;;;;;;;;4953746;28;20031;-82
2023/05/04 12:56:32;;;;;;;3.55;2.10;;;24.90;66.10;;;;;;4955939;28;20030;-81
2023/05/04 12:58:58;;;;;;;2.50;1.90;;;;;;;;;;4954326;28;20039;-82
2023/05/04 13:01:24;;;;;;;3.13;2.03;;;;;;;;;;4953580;28;20161;-83
2023/05/04 13:03:50;;;;;;;5.28;2.03;;;;;;;;;;4967201;28;20035;-79
2023/05/04 13:06:16;;;;;;;3.70;2.28;;;;;;;;;;4953404;28;20027;-83
2023/05/04 13:08:43;;;;;;;2.78;1.90;;;;;;;;;;4945980;28;20094;-85
2023/05/04 13:11:09;;;;;;;3.60;2.00;;;;;;;;;;4956281;28;20027;-82
2023/05/04 13:13:35;;;;;;;4.25;2.30;;;;;;;;;;4970168;28;20103;-82
2023/05/04 13:16:02;;;;;;;3.25;2.33;;;;;;;;;;4971006;28;20023;-83
2023/05/04 13:18:28;;;;;;;3.40;2.05;;;;;;;;;;4969754;28;20036;-83
2023/05/04 13:20:54;;;;;;;4.35;2.20;;;;;;;;;;4956101;28;20049;-83
2023/05/04 13:23:21;;;;;;;3.13;2.10;;;;;;;;;;4960787;28;20844;-85
2023/05/04 13:25:49;;;;;;;3.58;2.22;;;24.80;66.50;;;;;;4953744;28;20058;-83
2023/05/04 13:28:15;;;;;;;3.97;1.90;;;;;;;;;;4962744;28;20031;-85
2023/05/04 13:30:41;;;;;;;4.47;2.15;;;;;;;;;;4947833;28;20031;-83
2023/05/04 13:33:07;;;;;;;2.67;1.95;;;;;;;;;;4959851;28;20063;-83
2023/05/04 13:35:33;;;;;;;3.00;2.10;;;;;;;;;;4952277;28;20031;-82
2023/05/04 13:37:59;;;;;;;4.18;2.25;;;;;;;;;;4947956;28;20041;-82
2023/05/04 13:40:26;;;;;;;3.65;2.35;;;;;;;;;;4961145;28;20054;-82
2023/05/04 13:42:51;;;;;;;3.80;2.33;;;;;;;;;;4975416;28;20030;-82
2023/05/04 13:45:18;;;;;;;5.78;1.92;;;;;;;;;;4958018;28;20077;-83
2023/05/04 13:47:45;;;;;;;3.30;2.10;;;;;;;;;;4956116;28;20609;-85
2023/05/04 13:50:11;;;;;;;2.53;2.00;;;;;;;;;;4970205;28;20066;-85
2023/05/04 13:52:37;;;;;;;4.57;2.03;;;;;;;;;;4953649;28;20034;-85
2023/05/04 13:55:03;;;;;;;4.50;2.20;;;;;;;;;;4968217;28;20029;-86
2023/05/04 13:57:29;;;;;;;2.85;1.98;;;;;;;;;;4933531;28;20035;-85
2023/05/04 13:59:55;;;;;;;3.83;2.10;;;;;;;;;;4964296;28;20034;-84
2023/05/04 14:02:22;;;;;;;5.13;1.88;;;;;;;;;;4952283;28;20023;-84
2023/05/04 14:04:51;;;;;;;3.70;2.28;;;;;;;;;;4968280;28;20827;-86
2023/05/04 14:07:17;;;;;;;4.37;2.10;;;;;;;;;;4950100;28;20089;-84
2023/05/04 14:09:43;;;;;;;3.20;1.88;;;;;;;;;;4949862;28;20270;-82
2023/05/04 14:12:09;;;;;;;3.05;2.35;;;;;;;;;;4949285;28;20027;-83
2023/05/04 14:14:35;;;;;;;5.05;2.03;;;;;;;;;;4946871;28;20027;-82
2023/05/04 14:17:02;;;;;;;3.88;2.03;;;;;;;;;;4953217;28;20058;-84
2023/05/04 14:19:28;;;;;;;2.85;1.90;;;;;;;;;;4963366;28;20030;-84
2023/05/04 14:21:54;;;;;;;2.60;2.05;;;;;;;;;;4962202;28;20028;-84
2023/05/04 14:24:20;;;;;;;3.38;2.10;;;;;;;;;;4954432;28;20560;-83
2023/05/04 14:26:46;;;;;;;5.70;3.40;;;;;;;;;;4947097;28;20061;-84
2023/05/04 14:29:12;;;;;;;5.10;2.33;;;;;;;;;;4950040;28;20031;-85
2023/05/04 14:31:38;;;;;;;3.00;1.95;;;;;;;;;;4953868;28;20066;-83
2023/05/04 14:34:04;;;;;;;3.38;2.13;;;;;;;;;;4967676;28;20094;-81
2023/05/04 14:36:30;;;;;;;2.90;2.03;;;;;;;;;;4957138;28;20031;-85
2023/05/04 14:38:57;;;;;;;3.33;2.13;;;;;;;;;;4948738;28;20027;-83
2023/05/04 14:41:23;;;;;;;4.20;2.30;;;;;;;;;;4948199;28;20476;-83
2023/05/04 14:43:49;;;;;;;3.47;2.50;;;;;;;;;;4954285;28;20065;-85
2023/05/04 14:46:15;;;;;;;5.18;2.50;;;;;;;;;;4943253;28;20118;-87
2023/05/04 14:48:43;;;;;;;4.68;2.42;;;;;;;;;;4946080;28;20468;-85
2023/05/04 14:51:12;;;;;;;3.22;2.30;;;25.50;66.60;;;;;;4950142;28;20030;-85
2023/05/04 14:53:39;;;;;;;6.53;2.20;;;;;;;;;;4952092;28;20031;-87
2023/05/04 14:56:05;;;;;;;4.95;2.30;;;;;;;;;;4953772;28;20035;-85
2023/05/04 14:58:31;;;;;;;3.70;2.00;;;;;;;;;;4953657;28;20061;-83
2023/05/04 15:00:57;;;;;;;4.47;2.42;;;;;;;;;;4965069;28;20038;-84
2023/05/04 15:03:24;;;;;;;3.38;2.42;;;;;;;;;;4962390;28;20062;-83
2023/05/04 15:05:50;;;;;;;4.88;2.70;;;;;;;;;;4946725;28;20039;-83
2023/05/04 15:08:16;;;;;;;4.70;2.20;;;;;;;;;;4939282;28;20057;-84
2023/05/04 15:10:42;;;;;;;4.63;2.30;;;;;;;;;;4964522;28;20026;-85
2023/05/04 15:13:08;;;;;;;2.72;2.33;;;;;;;;;;4949380;28;20037;-85
2023/05/04 15:15:39;;;;;;;3.20;2.40;;;25.40;68.50;;;;;;4944276;28;20113;-83
2023/05/04 15:18:07;;;;;;;5.30;2.55;;;;;;;;;;4947298;28;20391;-84
2023/05/04 15:20:36;;;;;;;3.47;2.38;;;25.40;68.80;;;;;;4950603;28;20031;-84
2023/05/04 15:23:09;;;;;;;4.55;2.38;;;;;;;;;;4952165;28;20028;-84
2023/05/04 15:25:35;;;;;;;4.43;2.50;;;;;;;;;;4943846;28;20453;-84
2023/05/04 15:28:02;;;;;;;4.47;2.30;;;;;;;;;;4939719;28;20519;-82
2023/05/04 15:30:28;;;;;;;3.53;2.70;;;;;;;;;;4961688;28;20015;-83
2023/05/04 15:32:55;;;;;;;3.63;2.28;;;;;;;;;;4952383;28;20078;-85
2023/05/04 15:35:21;;;;;;;3.53;2.13;;;;;;;;;;4969876;28;20027;-87
2023/05/04 15:37:47;;;;;;;3.55;2.45;;;;;;;;;;4949936;28;20034;-82
2023/05/04 15:40:15;;;;;;;4.10;2.40;;;;;;;;;;4944723;28;20042;-83
2023/05/04 15:43:18;;;;;;;3.72;2.47;;;25.00;68.80;;;;;;4962258;28;20027;-85
2023/05/04 15:45:44;;;;;;;3.80;1.80;;;;;;;;;;4957172;28;20043;-84
2023/05/04 15:48:10;;;;;;;4.88;2.60;;;;;;;;;;4963503;28;20026;-85
2023/05/04 15:50:36;;;;;;;5.30;2.72;;;;;;;;;;4946233;28;20027;-85
2023/05/04 15:53:02;;;;;;;3.50;2.40;;;;;;;;;;4959603;28;20007;-85
2023/05/04 15:55:28;;;;;;;5.15;3.20;;;;;;;;;;4971712;28;20037;-86
2023/05/04 15:57:54;;;;;;;3.05;2.40;;;;;;;;;;4983285;28;20034;-84
2023/05/04 16:00:21;;;;;;;7.10;3.95;;;;;;;;;;4970750;28;20253;-85
2023/05/04 16:02:47;;;;;;;4.20;2.33;;;;;;;;;;4986136;28;20034;-84
2023/05/04 16:05:13;;;;;;;5.10;2.45;;;;;;;;;;4959330;28;20061;-87
2023/05/04 16:07:38;;;;;;;3.08;2.17;;;;;;;;;;4974493;28;20034;-84
2023/05/04 16:10:05;;;;;;;3.85;2.40;;;24.80;68.80;;;;;;4969168;28;20249;-86
2023/05/04 16:12:31;;;;;;;4.80;2.50;;;;;;;;;;4949836;28;20057;-86
2023/05/04 16:14:57;;;;;;;4.32;2.53;;;;;;;;;;4954425;28;20031;-85
2023/05/04 16:17:23;;;;;;;3.10;2.00;;;;;;;;;;4968180;28;20035;-83
2023/05/04 16:19:49;;;;;;;3.58;2.92;;;;;;;;;;4953507;28;20022;-85
2023/05/04 16:22:15;;;;;;;8.45;6.68;;;;;;;;;;4960729;28;20085;-86
2023/05/04 16:24:41;;;;;;;6.20;3.40;;;;;;;;;;4970917;28;20038;-87
2023/05/04 16:27:07;;;;;;;5.95;4.18;;;;;;;;;;4962782;28;20058;-84
2023/05/04 16:29:33;;;;;;;3.92;2.90;;;;;;;;;;4963104;28;20019;-85
2023/05/04 16:32:00;;;;;;;6.80;3.03;;;;;;;;;;4982540;28;20031;-86
2023/05/04 16:34:28;;;;;;;5.35;2.90;;;24.70;69.40;;;;;;4968265;28;20029;-85
2023/05/04 16:36:54;;;;;;;3.78;2.22;;;;;;;;;;4967686;28;20041;-86
2023/05/04 16:39:20;;;;;;;4.50;2.92;;;;;;;;;;4972861;28;20030;-87
2023/05/04 16:41:47;;;;;;;5.53;3.42;;;;;;;;;;4964017;28;20039;-85
2023/05/04 16:44:13;;;;;;;7.50;3.28;;;;;;;;;;4950557;28;20038;-84
2023/05/04 16:46:39;;;;;;;6.95;2.40;;;;;;;;;;4966875;28;20031;-86
2023/05/04 16:49:06;;;;;;;5.40;2.80;;;;;;;;;;4966905;28;20023;-84
2023/05/04 16:51:32;;;;;;;5.07;2.88;;;;;;;;;;4949519;28;20027;-85
2023/05/04 16:53:58;;;;;;;4.45;3.08;;;;;;;;;;4951469;28;20057;-83
2023/05/04 16:56:23;;;;;;;5.13;2.70;;;24.20;70.50;;;;;;4953317;28;20037;-84
2023/05/04 16:58:49;;;;;;;5.10;3.38;;;;;;;;;;4947720;28;20034;-84
2023/05/04 17:01:15;;;;;;;3.58;2.30;;;24.10;70.90;;;;;;4972096;28;20031;-83
2023/05/04 17:03:40;;;;;;;7.25;3.63;;;24.00;70.80;;;;;;4952380;28;20062;-85
2023/05/04 17:06:07;;;;;;;5.75;3.03;;;24.00;71.20;;;;;;4967881;23;20042;-84
2023/05/04 17:08:33;;;;;;;3.90;2.60;;;;;;;;;;4965458;28;20101;-86
2023/05/04 17:10:59;;;;;;;6.63;3.72;;;24.10;71.50;;;;;;4962517;28;20022;-84
2023/05/04 17:13:25;;;;;;;3.83;2.50;;;;;;;;;;4955590;28;20484;-86
2023/05/04 17:15:51;;;;;;;5.85;2.65;;;;;;;;;;4959105;28;20027;-85
2023/05/04 17:18:17;;;;;;;5.45;2.65;;;;;;;;;;4960150;28;20027;-84
2023/05/04 17:20:43;;;;;;;5.10;3.15;;;;;;;;;;4962928;28;20031;-84
2023/05/04 17:23:09;;;;;;;6.53;3.60;;;;;;;;;;4955648;28;20146;-84
2023/05/04 17:25:36;;;;;;;3.60;2.50;;;;;;;;;;4959402;28;20222;-84
2023/05/04 17:28:03;;;;;;;4.68;2.55;;;;;;;;;;4959873;28;20073;-85
2023/05/04 17:30:29;;;;;;;4.82;2.65;;;;;;;;;;4955960;28;20388;-84
2023/05/04 17:32:56;;;;;;;4.10;2.40;;;;;;;;;;4959270;28;20118;-86
2023/05/04 17:35:22;;;;;;;3.53;2.60;;;24.50;71.30;;;;;;4959410;28;20027;-84
2023/05/04 17:37:48;;;;;;;4.25;2.50;;;;;;;;;;4959157;28;20034;-84
2023/05/04 17:40:14;;;;;;;4.28;2.65;;;24.30;71.60;;;;;;4959062;28;20099;-85
2023/05/04 17:42:40;;;;;;;4.68;2.70;;;24.10;71.90;;;;;;4956751;28;20030;-85
2023/05/04 17:45:05;;;;;;;4.10;2.88;;;24.00;72.10;;;;;;4956385;28;20482;-82
2023/05/04 17:47:31;;;;;;;6.13;3.42;;;23.90;72.80;;;;;;4953278;28;20105;-86
2023/05/04 17:49:57;;;;;;;5.00;3.35;;;;;;;;;;4948981;28;20082;-84
2023/05/04 17:52:23;;;;;;;4.32;2.83;;;23.70;73.30;;;;;;4950006;28;20019;-84
2023/05/04 17:54:48;;;;;;;7.20;2.97;;;23.70;73.30;;;;;;4951315;28;20475;-84
2023/05/04 17:57:15;;;;;;;4.68;2.80;;;23.60;73.60;;;;;;4949555;28;20027;-84
2023/05/04 17:59:41;;;;;;;5.13;3.30;;;;;;;;;;4956541;28;20052;-83
2023/05/04 18:02:07;;;;;;;5.25;3.30;;;;;;;;;;4960830;28;20055;-83
2023/05/04 18:04:34;;;;;;;7.20;2.80;;;23.40;73.60;;;;;;4964563;28;20027;-82
2023/05/04 18:07:00;;;;;;;4.10;2.88;;;;;;;;;;4964021;28;20042;-82
2023/05/04 18:09:26;;;;;;;5.55;3.15;;;;;;;;;;4963861;28;20029;-84
2023/05/04 18:11:52;;;;;;;5.70;3.40;;;;;;;;;;4965225;28;20055;-82
2023/05/04 18:14:18;;;;;;;3.38;2.70;;;23.30;74.30;;;;;;4963341;28;20023;-82
2023/05/04 18:16:44;;;;;;;4.82;3.22;;;23.20;74.80;;;;;;4966881;28;20039;-83
2023/05/04 18:19:10;;;;;;;5.18;3.83;;;;;;;;;;4972075;28;20037;-84
2023/05/04 18:21:36;;;;;;;6.68;3.80;;;23.00;74.50;;;;;;4968052;28;20035;-83
2023/05/04 18:24:05;;;;;;;4.63;3.13;;;22.90;75.60;;;;;;4963142;28;20118;-83
2023/05/04 18:26:31;;;;;;;5.63;3.60;;;;;;;;;;4971079;28;20706;-81
2023/05/04 18:28:57;;;;;;;5.22;3.25;;;;;;;;;;4966127;28;20283;-83
2023/05/04 18:31:23;;;;;;;4.53;3.17;;;;;;;;;;4982275;28;20043;-83
2023/05/04 18:33:49;;;;;;;7.80;3.72;;;;;;;;;;4950109;28;20034;-86
2023/05/04 18:36:15;;;;;;;6.53;4.80;;;;;;;;;;4972787;28;20074;-83
2023/05/04 18:38:41;;;;;;;6.30;3.78;;;;;;;;;;4967173;28;20038;-83
2023/05/04 18:41:06;;;;;;;6.00;3.65;;;22.40;75.90;;;;;;4960219;28;20534;-84
2023/05/04 18:43:32;;;;;;;7.15;3.53;;;22.30;76.00;;;;;;4969316;28;20149;-83
2023/05/04 18:46:05;;;;;;;5.82;3.40;;;22.30;76.00;;;;;;4971217;28;20031;-83
2023/05/04 18:48:34;;;;;;;8.25;5.20;;;22.30;76.40;;;;;;4966746;28;20171;-86
2023/05/04 18:51:00;;;;;;;6.05;3.55;;;22.20;76.20;;;;;;4967737;28;20019;-84
2023/05/04 18:53:26;;;;;;;8.27;5.10;;;;;;;;;;4958497;28;20058;-82
2023/05/04 18:56:06;;;;;;;5.35;3.92;;;22.00;76.60;;;;;;4964731;28;20027;-84
2023/05/04 18:58:33;;;;;;;8.00;4.47;;;21.90;77.00;;;;;;4963291;28;20094;-81
2023/05/04 19:00:59;;;;;;;6.05;3.90;;;;;;;;;;4961440;28;20606;-81
2023/05/04 19:03:25;;;;;;;5.03;3.78;;;;;;;;;;4965165;28;20962;-82
2023/05/04 19:05:51;;;;;;;9.05;3.80;;;;;;;;;;4970152;28;20035;-82
2023/05/04 19:08:18;;;;;;;7.07;3.97;;;;;;;;;;4963625;28;20386;-81
2023/05/04 19:10:47;;;;;;;11.98;8.80;;;21.70;79.00;;;;;;4958665;28;20082;-83
2023/05/04 19:13:14;;;;;;;10.30;8.48;;;;;;;;;;4964542;28;20058;-82
2023/05/04 19:15:40;;;;;;;7.72;5.28;;;;;;;;;;4964885;28;20038;-83
2023/05/04 19:18:06;;;;;;;6.30;4.53;;;;;;;;;;4960170;28;20027;-84